sensor_id;sensor_type;location;lat;lon;timestamp;temperature;humidity
20658;DHT22;10488;50.846;4.078;2023-07-30T00:01:32;16.20;99.90
20658;DHT22;10488;50.846;4.078;2023-07-30T00:03:58;16.20;99.90
20658;DHT22;10488;50.846;4.078;2023-07-30T00:06:24;16.20;99.90
20658;DHT22;10488;50.846;4.078;2023-07-30T00:08:50;16.10;99.90
20658;DHT22;10488;50.846;4.078;2023-07-30T00:11:16;16.10;99.90
20658;DHT22;10488;50.846;4.078;2023-07-30T00:13:41;16.00;99.90
20658;DHT22;10488;50.846;4.078;2023-07-30T00:16:07;15.80;99.90
20658;DHT22;10488;50.846;4.078;2023-07-30T00:18:33;16.00;99.90
20658;DHT22;10488;50.846;4.078;2023-07-30T00:20:58;16.00;99.90
20658;DHT22;10488;50.846;4.078;2023-07-30T00:23:24;16.00;99.90
20658;DHT22;10488;50.846;4.078;2023-07-30T00:25:49;16.10;99.90
20658;DHT22;10488;50.846;4.078;2023-07-30T00:28:15;16.20;99.90
20658;DHT22;10488;50.846;4.078;2023-07-30T00:30:41;16.10;99.90
20658;DHT22;10488;50.846;4.078;2023-07-30T00:33:06;16.10;99.90
20658;DHT22;10488;50.846;4.078;2023-07-30T00:35:32;16.20;99.90
20658;DHT22;10488;50.846;4.078;2023-07-30T00:37:57;16.00;99.90
20658;DHT22;10488;50.846;4.078;2023-07-30T00:40:23;15.90;99.90
20658;DHT22;10488;50.846;4.078;2023-07-30T00:42:49;15.80;99.90
20658;DHT22;10488;50.846;4.078;2023-07-30T00:45:15;15.90;99.90
20658;DHT22;10488;50.846;4.078;2023-07-30T00:47:41;15.90;99.90
20658;DHT22;10488;50.846;4.078;2023-07-30T00:50:07;16.00;99.90
20658;DHT22;10488;50.846;4.078;2023-07-30T00:52:34;16.10;99.90
20658;DHT22;10488;50.846;4.078;2023-07-30T00:55:02;16.10;99.90
20658;DHT22;10488;50.846;4.078;2023-07-30T00:57:28;16.20;99.90
20658;DHT22;10488;50.846;4.078;2023-07-30T00:59:56;16.30;99.90
20658;DHT22;10488;50.846;4.078;2023-07-30T01:02:22;16.30;99.90
20658;DHT22;10488;50.846;4.078;2023-07-30T01:04:48;16.20;99.90
20658;DHT22;10488;50.846;4.078;2023-07-30T01:07:15;16.30;99.90
20658;DHT22;10488;50.846;4.078;2023-07-30T01:09:41;16.40;99.90
20658;DHT22;10488;50.846;4.078;2023-07-30T01:12:07;16.50;99.90
20658;DHT22;10488;50.846;4.078;2023-07-30T01:14:33;16.50;99.90
20658;DHT22;10488;50.846;4.078;2023-07-30T01:17:00;16.60;99.90
20658;DHT22;10488;50.846;4.078;2023-07-30T01:19:26;16.70;99.90
20658;DHT22;10488;50.846;4.078;2023-07-30T01:21:52;16.70;99.90
20658;DHT22;10488;50.846;4.078;2023-07-30T01:24:17;16.90;99.90
20658;DHT22;10488;50.846;4.078;2023-07-30T01:26:44;16.90;99.90
20658;DHT22;10488;50.846;4.078;2023-07-30T01:29:23;16.90;99.90
20658;DHT22;10488;50.846;4.078;2023-07-30T01:31:56;16.80;99.90
20658;DHT22;10488;50.846;4.078;2023-07-30T01:34:24;16.90;99.90
20658;DHT22;10488;50.846;4.078;2023-07-30T01:36:51;16.90;99.90
20658;DHT22;10488;50.846;4.078;2023-07-30T01:39:19;16.80;99.90
20658;DHT22;10488;50.846;4.078;2023-07-30T01:41:45;16.70;99.90
20658;DHT22;10488;50.846;4.078;2023-07-30T01:44:11;16.60;99.90
20658;DHT22;10488;50.846;4.078;2023-07-30T01:46:36;16.80;99.90
20658;DHT22;10488;50.846;4.078;2023-07-30T01:49:02;16.60;99.90
20658;DHT22;10488;50.846;4.078;2023-07-30T01:51:27;16.60;99.90
20658;DHT22;10488;50.846;4.078;2023-07-30T01:53:53;16.70;99.90
20658;DHT22;10488;50.846;4.078;2023-07-30T01:56:19;16.60;99.90
20658;DHT22;10488;50.846;4.078;2023-07-30T01:58:44;16.70;99.90
20658;DHT22;10488;50.846;4.078;2023-07-30T02:01:10;16.70;99.90
20658;DHT22;10488;50.846;4.078;2023-07-30T02:03:36;16.70;99.90
20658;DHT22;10488;50.846;4.078;2023-07-30T02:06:01;16.80;99.90
20658;DHT22;10488;50.846;4.078;2023-07-30T02:08:27;16.60;99.90
20658;DHT22;10488;50.846;4.078;2023-07-30T02:11:00;16.60;99.90
20658;DHT22;10488;50.846;4.078;2023-07-30T02:13:25;16.60;99.90
20658;DHT22;10488;50.846;4.078;2023-07-30T02:15:51;16.50;99.90
20658;DHT22;10488;50.846;4.078;2023-07-30T02:18:17;16.40;99.90
20658;DHT22;10488;50.846;4.078;2023-07-30T02:20:43;16.40;99.90
20658;DHT22;10488;50.846;4.078;2023-07-30T02:23:08;16.40;99.90
20658;DHT22;10488;50.846;4.078;2023-07-30T02:25:34;16.30;99.90
20658;DHT22;10488;50.846;4.078;2023-07-30T02:28:01;16.30;99.90
20658;DHT22;10488;50.846;4.078;2023-07-30T02:30:27;16.10;99.90
20658;DHT22;10488;50.846;4.078;2023-07-30T02:32:53;16.20;99.90
20658;DHT22;10488;50.846;4.078;2023-07-30T02:35:19;16.30;99.90
20658;DHT22;10488;50.846;4.078;2023-07-30T02:37:44;16.20;99.90
20658;DHT22;10488;50.846;4.078;2023-07-30T02:40:11;16.30;99.90
20658;DHT22;10488;50.846;4.078;2023-07-30T02:42:36;16.30;99.90
20658;DHT22;10488;50.846;4.078;2023-07-30T02:45:03;16.20;99.90
20658;DHT22;10488;50.846;4.078;2023-07-30T02:47:29;16.10;99.90
20658;DHT22;10488;50.846;4.078;2023-07-30T02:49:55;16.10;99.90
20658;DHT22;10488;50.846;4.078;2023-07-30T02:52:20;16.00;99.90
20658;DHT22;10488;50.846;4.078;2023-07-30T02:54:46;16.00;99.90
20658;DHT22;10488;50.846;4.078;2023-07-30T02:57:12;15.90;99.90
20658;DHT22;10488;50.846;4.078;2023-07-30T02:59:38;15.90;99.90
20658;DHT22;10488;50.846;4.078;2023-07-30T03:02:04;15.80;99.90
20658;DHT22;10488;50.846;4.078;2023-07-30T03:04:33;15.80;99.90
20658;DHT22;10488;50.846;4.078;2023-07-30T03:06:58;15.80;99.90
20658;DHT22;10488;50.846;4.078;2023-07-30T03:09:24;15.90;99.90
20658;DHT22;10488;50.846;4.078;2023-07-30T03:11:50;15.90;99.90
20658;DHT22;10488;50.846;4.078;2023-07-30T03:14:16;15.90;99.90
20658;DHT22;10488;50.846;4.078;2023-07-30T03:16:42;15.90;99.90
20658;DHT22;10488;50.846;4.078;2023-07-30T03:19:07;15.80;99.90
20658;DHT22;10488;50.846;4.078;2023-07-30T03:21:33;16.00;99.90
20658;DHT22;10488;50.846;4.078;2023-07-30T03:23:58;15.90;99.90
20658;DHT22;10488;50.846;4.078;2023-07-30T03:26:24;15.90;99.90
20658;DHT22;10488;50.846;4.078;2023-07-30T03:28:50;15.90;99.90
20658;DHT22;10488;50.846;4.078;2023-07-30T03:31:15;16.10;99.90
20658;DHT22;10488;50.846;4.078;2023-07-30T03:33:41;16.20;99.90
20658;DHT22;10488;50.846;4.078;2023-07-30T03:36:11;16.30;99.90
20658;DHT22;10488;50.846;4.078;2023-07-30T03:38:39;16.30;99.90
20658;DHT22;10488;50.846;4.078;2023-07-30T03:41:05;16.40;99.90
20658;DHT22;10488;50.846;4.078;2023-07-30T03:43:34;16.40;99.90
20658;DHT22;10488;50.846;4.078;2023-07-30T03:46:00;16.20;99.90
20658;DHT22;10488;50.846;4.078;2023-07-30T03:48:26;16.10;99.90
20658;DHT22;10488;50.846;4.078;2023-07-30T03:50:55;16.00;99.90
20658;DHT22;10488;50.846;4.078;2023-07-30T03:53:22;15.80;99.90
20658;DHT22;10488;50.846;4.078;2023-07-30T03:55:48;15.70;99.90
20658;DHT22;10488;50.846;4.078;2023-07-30T03:58:14;15.60;99.90
20658;DHT22;10488;50.846;4.078;2023-07-30T04:00:40;15.60;99.90
20658;DHT22;10488;50.846;4.078;2023-07-30T04:03:05;15.70;99.90
20658;DHT22;10488;50.846;4.078;2023-07-30T04:05:31;15.80;99.90
20658;DHT22;10488;50.846;4.078;2023-07-30T04:07:57;15.80;99.90
20658;DHT22;10488;50.846;4.078;2023-07-30T04:10:23;15.80;99.90
20658;DHT22;10488;50.846;4.078;2023-07-30T04:12:48;15.80;99.90
20658;DHT22;10488;50.846;4.078;2023-07-30T04:15:17;15.60;99.90
20658;DHT22;10488;50.846;4.078;2023-07-30T04:17:43;15.60;99.90
20658;DHT22;10488;50.846;4.078;2023-07-30T04:20:09;15.60;99.90
20658;DHT22;10488;50.846;4.078;2023-07-30T04:22:35;15.70;99.90
20658;DHT22;10488;50.846;4.078;2023-07-30T04:25:01;15.80;99.90
20658;DHT22;10488;50.846;4.078;2023-07-30T04:27:27;15.70;99.90
20658;DHT22;10488;50.846;4.078;2023-07-30T04:29:52;15.70;99.90
20658;DHT22;10488;50.846;4.078;2023-07-30T04:32:19;15.60;99.90
20658;DHT22;10488;50.846;4.078;2023-07-30T04:34:45;15.70;99.90
20658;DHT22;10488;50.846;4.078;2023-07-30T04:37:10;15.70;99.90
20658;DHT22;10488;50.846;4.078;2023-07-30T04:39:36;15.80;99.90
20658;DHT22;10488;50.846;4.078;2023-07-30T04:42:02;15.80;99.90
20658;DHT22;10488;50.846;4.078;2023-07-30T04:44:28;15.80;99.90
20658;DHT22;10488;50.846;4.078;2023-07-30T04:46:54;15.70;99.90
20658;DHT22;10488;50.846;4.078;2023-07-30T04:49:20;15.60;99.90
20658;DHT22;10488;50.846;4.078;2023-07-30T04:51:45;15.70;99.90
20658;DHT22;10488;50.846;4.078;2023-07-30T04:54:11;15.70;99.90
20658;DHT22;10488;50.846;4.078;2023-07-30T04:56:37;15.90;99.90
20658;DHT22;10488;50.846;4.078;2023-07-30T04:59:03;15.90;99.90
20658;DHT22;10488;50.846;4.078;2023-07-30T05:01:29;16.00;99.90
20658;DHT22;10488;50.846;4.078;2023-07-30T05:03:55;16.00;99.90
20658;DHT22;10488;50.846;4.078;2023-07-30T05:06:22;16.00;99.90
20658;DHT22;10488;50.846;4.078;2023-07-30T05:08:48;15.90;99.90
20658;DHT22;10488;50.846;4.078;2023-07-30T05:11:13;16.10;99.90
20658;DHT22;10488;50.846;4.078;2023-07-30T05:13:39;16.10;99.90
20658;DHT22;10488;50.846;4.078;2023-07-30T05:16:05;16.00;99.90
20658;DHT22;10488;50.846;4.078;2023-07-30T05:18:30;15.90;99.90
20658;DHT22;10488;50.846;4.078;2023-07-30T05:20:56;15.90;99.90
20658;DHT22;10488;50.846;4.078;2023-07-30T05:23:22;15.90;99.90
20658;DHT22;10488;50.846;4.078;2023-07-30T05:25:47;15.80;99.90
20658;DHT22;10488;50.846;4.078;2023-07-30T05:28:13;15.90;99.90
20658;DHT22;10488;50.846;4.078;2023-07-30T05:30:39;16.00;99.90
20658;DHT22;10488;50.846;4.078;2023-07-30T05:33:04;16.10;99.90
20658;DHT22;10488;50.846;4.078;2023-07-30T05:35:30;16.30;99.90
20658;DHT22;10488;50.846;4.078;2023-07-30T05:37:56;16.30;99.90
20658;DHT22;10488;50.846;4.078;2023-07-30T05:40:22;16.40;99.90
20658;DHT22;10488;50.846;4.078;2023-07-30T05:42:47;16.30;99.90
20658;DHT22;10488;50.846;4.078;2023-07-30T05:45:13;16.30;99.90
20658;DHT22;10488;50.846;4.078;2023-07-30T05:47:39;16.30;99.90
20658;DHT22;10488;50.846;4.078;2023-07-30T05:50:06;16.30;99.90
20658;DHT22;10488;50.846;4.078;2023-07-30T05:52:32;16.40;99.90
20658;DHT22;10488;50.846;4.078;2023-07-30T05:54:57;16.50;99.90
20658;DHT22;10488;50.846;4.078;2023-07-30T05:57:23;16.30;99.90
20658;DHT22;10488;50.846;4.078;2023-07-30T05:59:49;16.30;99.90
20658;DHT22;10488;50.846;4.078;2023-07-30T06:02:15;16.30;99.90
20658;DHT22;10488;50.846;4.078;2023-07-30T06:04:41;16.50;99.90
20658;DHT22;10488;50.846;4.078;2023-07-30T06:07:06;16.60;99.90
20658;DHT22;10488;50.846;4.078;2023-07-30T06:09:32;16.60;99.90
20658;DHT22;10488;50.846;4.078;2023-07-30T06:11:58;16.70;99.90
20658;DHT22;10488;50.846;4.078;2023-07-30T06:14:24;16.70;99.90
20658;DHT22;10488;50.846;4.078;2023-07-30T06:16:51;16.90;99.90
20658;DHT22;10488;50.846;4.078;2023-07-30T06:19:16;16.80;99.90
20658;DHT22;10488;50.846;4.078;2023-07-30T06:21:42;16.80;99.90
20658;DHT22;10488;50.846;4.078;2023-07-30T06:24:08;17.10;99.90
20658;DHT22;10488;50.846;4.078;2023-07-30T06:26:33;17.30;99.90
20658;DHT22;10488;50.846;4.078;2023-07-30T06:28:59;17.40;99.90
20658;DHT22;10488;50.846;4.078;2023-07-30T06:31:25;17.40;99.90
20658;DHT22;10488;50.846;4.078;2023-07-30T06:33:50;17.40;99.90
20658;DHT22;10488;50.846;4.078;2023-07-30T06:36:16;17.10;99.90
20658;DHT22;10488;50.846;4.078;2023-07-30T06:38:42;17.10;99.90
20658;DHT22;10488;50.846;4.078;2023-07-30T06:41:07;17.00;99.90
20658;DHT22;10488;50.846;4.078;2023-07-30T06:43:33;17.20;99.90
20658;DHT22;10488;50.846;4.078;2023-07-30T06:45:59;17.60;99.90
20658;DHT22;10488;50.846;4.078;2023-07-30T06:48:24;18.20;99.90
20658;DHT22;10488;50.846;4.078;2023-07-30T06:50:50;19.00;99.90
20658;DHT22;10488;50.846;4.078;2023-07-30T06:53:16;19.80;99.90
20658;DHT22;10488;50.846;4.078;2023-07-30T06:55:41;20.40;99.90
20658;DHT22;10488;50.846;4.078;2023-07-30T06:58:07;21.10;99.90
20658;DHT22;10488;50.846;4.078;2023-07-30T07:00:33;21.30;99.90
20658;DHT22;10488;50.846;4.078;2023-07-30T07:02:58;21.60;99.90
20658;DHT22;10488;50.846;4.078;2023-07-30T07:05:24;21.80;99.90
20658;DHT22;10488;50.846;4.078;2023-07-30T07:07:50;22.10;99.90
20658;DHT22;10488;50.846;4.078;2023-07-30T07:10:15;21.80;99.90
20658;DHT22;10488;50.846;4.078;2023-07-30T07:12:41;21.10;99.90
20658;DHT22;10488;50.846;4.078;2023-07-30T07:15:07;21.00;99.90
20658;DHT22;10488;50.846;4.078;2023-07-30T07:17:34;21.20;99.90
20658;DHT22;10488;50.846;4.078;2023-07-30T07:20:00;21.10;99.90
20658;DHT22;10488;50.846;4.078;2023-07-30T07:22:26;20.30;99.90
20658;DHT22;10488;50.846;4.078;2023-07-30T07:24:52;20.30;99.90
20658;DHT22;10488;50.846;4.078;2023-07-30T07:27:18;20.00;99.90
20658;DHT22;10488;50.846;4.078;2023-07-30T07:29:44;20.00;99.90
20658;DHT22;10488;50.846;4.078;2023-07-30T07:32:10;19.90;99.90
20658;DHT22;10488;50.846;4.078;2023-07-30T07:34:35;20.00;99.90
20658;DHT22;10488;50.846;4.078;2023-07-30T07:37:02;19.70;99.90
20658;DHT22;10488;50.846;4.078;2023-07-30T07:39:27;19.30;99.90
20658;DHT22;10488;50.846;4.078;2023-07-30T07:41:53;19.40;99.90
20658;DHT22;10488;50.846;4.078;2023-07-30T07:44:19;19.30;99.90
20658;DHT22;10488;50.846;4.078;2023-07-30T07:46:44;19.30;99.90
20658;DHT22;10488;50.846;4.078;2023-07-30T07:49:10;19.40;99.90
20658;DHT22;10488;50.846;4.078;2023-07-30T07:51:36;19.70;99.90
20658;DHT22;10488;50.846;4.078;2023-07-30T07:54:01;19.80;99.90
20658;DHT22;10488;50.846;4.078;2023-07-30T07:56:27;19.60;99.90
20658;DHT22;10488;50.846;4.078;2023-07-30T07:58:52;19.50;99.90
20658;DHT22;10488;50.846;4.078;2023-07-30T08:01:18;19.80;99.90
20658;DHT22;10488;50.846;4.078;2023-07-30T08:03:44;20.00;99.90
20658;DHT22;10488;50.846;4.078;2023-07-30T08:06:10;19.60;99.90
20658;DHT22;10488;50.846;4.078;2023-07-30T08:08:35;19.70;99.90
20658;DHT22;10488;50.846;4.078;2023-07-30T08:11:08;20.00;99.90
20658;DHT22;10488;50.846;4.078;2023-07-30T08:13:35;20.00;99.90
20658;DHT22;10488;50.846;4.078;2023-07-30T08:16:01;20.30;99.90
20658;DHT22;10488;50.846;4.078;2023-07-30T08:18:27;20.70;99.90
20658;DHT22;10488;50.846;4.078;2023-07-30T08:20:53;20.90;99.90
20658;DHT22;10488;50.846;4.078;2023-07-30T08:23:19;21.10;99.90
20658;DHT22;10488;50.846;4.078;2023-07-30T08:25:45;20.60;99.90
20658;DHT22;10488;50.846;4.078;2023-07-30T08:28:11;20.40;99.90
20658;DHT22;10488;50.846;4.078;2023-07-30T08:30:36;20.40;99.90
20658;DHT22;10488;50.846;4.078;2023-07-30T08:33:02;20.20;99.90
20658;DHT22;10488;50.846;4.078;2023-07-30T08:35:28;20.50;99.90
20658;DHT22;10488;50.846;4.078;2023-07-30T08:37:54;20.40;99.90
20658;DHT22;10488;50.846;4.078;2023-07-30T08:40:24;20.40;99.90
20658;DHT22;10488;50.846;4.078;2023-07-30T08:42:53;20.20;99.90
20658;DHT22;10488;50.846;4.078;2023-07-30T08:45:19;20.20;99.90
20658;DHT22;10488;50.846;4.078;2023-07-30T08:47:46;20.40;99.90
20658;DHT22;10488;50.846;4.078;2023-07-30T08:50:12;20.50;99.90
20658;DHT22;10488;50.846;4.078;2023-07-30T08:52:38;20.80;99.90
20658;DHT22;10488;50.846;4.078;2023-07-30T08:55:06;21.10;99.90
20658;DHT22;10488;50.846;4.078;2023-07-30T08:57:32;21.30;99.90
20658;DHT22;10488;50.846;4.078;2023-07-30T09:00:08;21.50;99.90
20658;DHT22;10488;50.846;4.078;2023-07-30T09:02:44;20.80;99.90
20658;DHT22;10488;50.846;4.078;2023-07-30T09:05:13;20.50;99.90
20658;DHT22;10488;50.846;4.078;2023-07-30T09:07:38;20.60;99.90
20658;DHT22;10488;50.846;4.078;2023-07-30T09:10:05;20.70;99.90
20658;DHT22;10488;50.846;4.078;2023-07-30T09:12:35;20.20;99.90
20658;DHT22;10488;50.846;4.078;2023-07-30T09:15:05;19.80;99.90
20658;DHT22;10488;50.846;4.078;2023-07-30T09:17:31;19.60;99.90
20658;DHT22;10488;50.846;4.078;2023-07-30T09:19:59;19.40;99.90
20658;DHT22;10488;50.846;4.078;2023-07-30T09:22:32;19.30;99.90
20658;DHT22;10488;50.846;4.078;2023-07-30T09:25:02;19.30;99.90
20658;DHT22;10488;50.846;4.078;2023-07-30T09:27:28;19.60;99.90
20658;DHT22;10488;50.846;4.078;2023-07-30T09:29:55;19.20;99.90
20658;DHT22;10488;50.846;4.078;2023-07-30T09:32:29;19.10;99.90
20658;DHT22;10488;50.846;4.078;2023-07-30T09:35:03;19.20;99.90
20658;DHT22;10488;50.846;4.078;2023-07-30T09:37:30;19.30;99.90
20658;DHT22;10488;50.846;4.078;2023-07-30T09:39:57;19.00;99.90
20658;DHT22;10488;50.846;4.078;2023-07-30T09:42:27;18.80;99.90
20658;DHT22;10488;50.846;4.078;2023-07-30T09:44:53;18.40;99.90
20658;DHT22;10488;50.846;4.078;2023-07-30T09:47:18;18.30;99.90
20658;DHT22;10488;50.846;4.078;2023-07-30T09:49:44;18.40;99.90
20658;DHT22;10488;50.846;4.078;2023-07-30T09:52:12;18.70;99.90
20658;DHT22;10488;50.846;4.078;2023-07-30T09:54:39;18.90;99.90
20658;DHT22;10488;50.846;4.078;2023-07-30T09:57:06;19.20;99.90
20658;DHT22;10488;50.846;4.078;2023-07-30T09:59:32;19.60;99.90
20658;DHT22;10488;50.846;4.078;2023-07-30T10:01:58;19.90;99.90
20658;DHT22;10488;50.846;4.078;2023-07-30T10:04:24;20.40;99.90
20658;DHT22;10488;50.846;4.078;2023-07-30T10:06:54;20.70;99.90
20658;DHT22;10488;50.846;4.078;2023-07-30T10:09:22;21.00;99.90
20658;DHT22;10488;50.846;4.078;2023-07-30T10:11:52;21.10;99.90
20658;DHT22;10488;50.846;4.078;2023-07-30T10:14:21;21.10;99.90
20658;DHT22;10488;50.846;4.078;2023-07-30T10:16:52;21.10;99.90
20658;DHT22;10488;50.846;4.078;2023-07-30T10:19:22;21.20;99.90
20658;DHT22;10488;50.846;4.078;2023-07-30T10:21:48;21.70;99.90
20658;DHT22;10488;50.846;4.078;2023-07-30T10:24:14;21.50;99.90
20658;DHT22;10488;50.846;4.078;2023-07-30T10:26:40;21.50;99.90
20658;DHT22;10488;50.846;4.078;2023-07-30T10:29:16;21.70;99.90
20658;DHT22;10488;50.846;4.078;2023-07-30T10:31:53;21.60;99.90
20658;DHT22;10488;50.846;4.078;2023-07-30T10:34:20;21.70;99.90
20658;DHT22;10488;50.846;4.078;2023-07-30T10:36:48;21.70;99.90
20658;DHT22;10488;50.846;4.078;2023-07-30T10:39:33;21.40;99.90
20658;DHT22;10488;50.846;4.078;2023-07-30T10:42:00;21.30;99.90
20658;DHT22;10488;50.846;4.078;2023-07-30T10:44:33;21.70;99.90
20658;DHT22;10488;50.846;4.078;2023-07-30T10:47:00;21.60;99.90
20658;DHT22;10488;50.846;4.078;2023-07-30T10:49:26;22.30;99.90
20658;DHT22;10488;50.846;4.078;2023-07-30T10:51:56;22.90;99.90
20658;DHT22;10488;50.846;4.078;2023-07-30T10:54:23;23.00;99.90
20658;DHT22;10488;50.846;4.078;2023-07-30T10:56:48;22.90;99.90
20658;DHT22;10488;50.846;4.078;2023-07-30T10:59:15;23.10;99.90
20658;DHT22;10488;50.846;4.078;2023-07-30T11:01:42;23.10;99.90
20658;DHT22;10488;50.846;4.078;2023-07-30T11:04:18;23.10;99.90
20658;DHT22;10488;50.846;4.078;2023-07-30T11:06:49;23.00;99.90
20658;DHT22;10488;50.846;4.078;2023-07-30T11:09:23;23.00;99.90
20658;DHT22;10488;50.846;4.078;2023-07-30T11:11:50;23.10;99.90
20658;DHT22;10488;50.846;4.078;2023-07-30T11:14:17;23.30;99.90
20658;DHT22;10488;50.846;4.078;2023-07-30T11:16:56;23.20;99.90
20658;DHT22;10488;50.846;4.078;2023-07-30T11:19:24;23.50;99.90
20658;DHT22;10488;50.846;4.078;2023-07-30T11:21:53;23.30;99.90
20658;DHT22;10488;50.846;4.078;2023-07-30T11:24:22;23.40;99.90
20658;DHT22;10488;50.846;4.078;2023-07-30T11:27:00;23.30;99.90
20658;DHT22;10488;50.846;4.078;2023-07-30T11:29:27;23.20;99.90
20658;DHT22;10488;50.846;4.078;2023-07-30T11:31:56;23.20;99.90
20658;DHT22;10488;50.846;4.078;2023-07-30T11:34:22;23.30;99.90
20658;DHT22;10488;50.846;4.078;2023-07-30T11:36:48;23.40;99.90
20658;DHT22;10488;50.846;4.078;2023-07-30T11:39:14;23.60;99.90
20658;DHT22;10488;50.846;4.078;2023-07-30T11:41:40;23.60;99.90
20658;DHT22;10488;50.846;4.078;2023-07-30T11:44:07;23.70;99.90
20658;DHT22;10488;50.846;4.078;2023-07-30T11:46:32;23.90;99.90
20658;DHT22;10488;50.846;4.078;2023-07-30T11:49:16;23.90;99.90
20658;DHT22;10488;50.846;4.078;2023-07-30T11:51:42;23.80;99.90
20658;DHT22;10488;50.846;4.078;2023-07-30T11:54:18;24.20;99.90
20658;DHT22;10488;50.846;4.078;2023-07-30T11:56:44;24.60;99.90
20658;DHT22;10488;50.846;4.078;2023-07-30T11:59:10;24.70;99.90
20658;DHT22;10488;50.846;4.078;2023-07-30T12:01:36;24.40;99.90
20658;DHT22;10488;50.846;4.078;2023-07-30T12:04:04;24.40;99.90
20658;DHT22;10488;50.846;4.078;2023-07-30T12:09:43;24.10;99.90
20658;DHT22;10488;50.846;4.078;2023-07-30T12:12:04;24.10;99.90
20658;DHT22;10488;50.846;4.078;2023-07-30T12:17:09;24.00;99.90
20658;DHT22;10488;50.846;4.078;2023-07-30T12:19:34;23.80;99.90
20658;DHT22;10488;50.846;4.078;2023-07-30T12:22:03;23.60;99.90
20658;DHT22;10488;50.846;4.078;2023-07-30T12:24:29;23.70;99.90
20658;DHT22;10488;50.846;4.078;2023-07-30T12:26:54;24.00;99.90
20658;DHT22;10488;50.846;4.078;2023-07-30T12:29:20;24.30;99.90
20658;DHT22;10488;50.846;4.078;2023-07-30T12:31:46;24.40;99.90
20658;DHT22;10488;50.846;4.078;2023-07-30T12:34:12;24.30;99.90
20658;DHT22;10488;50.846;4.078;2023-07-30T12:36:38;23.90;99.90
20658;DHT22;10488;50.846;4.078;2023-07-30T12:39:04;23.90;99.90
20658;DHT22;10488;50.846;4.078;2023-07-30T12:41:29;24.40;99.90
20658;DHT22;10488;50.846;4.078;2023-07-30T12:43:56;24.80;99.90
20658;DHT22;10488;50.846;4.078;2023-07-30T12:46:22;24.40;99.90
20658;DHT22;10488;50.846;4.078;2023-07-30T12:48:48;24.00;99.90
20658;DHT22;10488;50.846;4.078;2023-07-30T12:51:14;24.20;99.90
20658;DHT22;10488;50.846;4.078;2023-07-30T12:53:40;24.20;99.90
20658;DHT22;10488;50.846;4.078;2023-07-30T12:56:06;24.40;99.90
20658;DHT22;10488;50.846;4.078;2023-07-30T12:58:31;24.10;99.90
20658;DHT22;10488;50.846;4.078;2023-07-30T13:00:57;23.90;99.90
20658;DHT22;10488;50.846;4.078;2023-07-30T13:03:23;23.90;99.90
20658;DHT22;10488;50.846;4.078;2023-07-30T13:05:48;24.10;99.90
20658;DHT22;10488;50.846;4.078;2023-07-30T13:08:14;24.10;99.90
20658;DHT22;10488;50.846;4.078;2023-07-30T13:10:39;24.10;99.90
20658;DHT22;10488;50.846;4.078;2023-07-30T13:13:05;23.90;99.90
20658;DHT22;10488;50.846;4.078;2023-07-30T13:15:31;23.80;99.90
20658;DHT22;10488;50.846;4.078;2023-07-30T13:17:56;23.80;99.90
20658;DHT22;10488;50.846;4.078;2023-07-30T13:20:22;23.80;99.90
20658;DHT22;10488;50.846;4.078;2023-07-30T13:22:50;24.00;99.90
20658;DHT22;10488;50.846;4.078;2023-07-30T13:25:15;24.20;99.90
20658;DHT22;10488;50.846;4.078;2023-07-30T13:27:41;24.20;99.90
20658;DHT22;10488;50.846;4.078;2023-07-30T13:30:07;24.30;99.90
20658;DHT22;10488;50.846;4.078;2023-07-30T13:32:33;24.40;99.90
20658;DHT22;10488;50.846;4.078;2023-07-30T13:34:58;24.40;99.90
20658;DHT22;10488;50.846;4.078;2023-07-30T13:37:24;24.30;99.90
20658;DHT22;10488;50.846;4.078;2023-07-30T13:39:50;23.90;99.90
20658;DHT22;10488;50.846;4.078;2023-07-30T13:42:16;23.90;99.90
20658;DHT22;10488;50.846;4.078;2023-07-30T13:44:41;23.50;99.90
20658;DHT22;10488;50.846;4.078;2023-07-30T13:47:07;23.60;99.90
20658;DHT22;10488;50.846;4.078;2023-07-30T13:49:33;23.60;99.90
20658;DHT22;10488;50.846;4.078;2023-07-30T13:51:59;23.80;99.90
20658;DHT22;10488;50.846;4.078;2023-07-30T13:54:24;23.80;99.90
20658;DHT22;10488;50.846;4.078;2023-07-30T13:56:50;23.70;99.90
20658;DHT22;10488;50.846;4.078;2023-07-30T13:59:16;23.60;99.90
20658;DHT22;10488;50.846;4.078;2023-07-30T14:01:41;23.50;99.90
20658;DHT22;10488;50.846;4.078;2023-07-30T14:04:07;23.70;99.90
20658;DHT22;10488;50.846;4.078;2023-07-30T14:06:32;23.70;99.90
20658;DHT22;10488;50.846;4.078;2023-07-30T14:08:58;23.80;99.90
20658;DHT22;10488;50.846;4.078;2023-07-30T14:11:27;23.80;99.90
20658;DHT22;10488;50.846;4.078;2023-07-30T14:13:53;23.80;99.90
20658;DHT22;10488;50.846;4.078;2023-07-30T14:16:18;23.60;99.90
20658;DHT22;10488;50.846;4.078;2023-07-30T14:18:44;23.80;99.90
20658;DHT22;10488;50.846;4.078;2023-07-30T14:21:10;24.10;99.90
20658;DHT22;10488;50.846;4.078;2023-07-30T14:23:37;24.20;99.90
20658;DHT22;10488;50.846;4.078;2023-07-30T14:26:03;23.90;99.90
20658;DHT22;10488;50.846;4.078;2023-07-30T14:28:29;23.80;99.90
20658;DHT22;10488;50.846;4.078;2023-07-30T14:30:54;23.60;99.90
20658;DHT22;10488;50.846;4.078;2023-07-30T14:33:20;23.70;99.90
20658;DHT22;10488;50.846;4.078;2023-07-30T14:35:46;23.50;99.90
20658;DHT22;10488;50.846;4.078;2023-07-30T14:38:12;23.30;99.90
20658;DHT22;10488;50.846;4.078;2023-07-30T14:40:38;23.30;99.90
20658;DHT22;10488;50.846;4.078;2023-07-30T14:43:04;23.20;99.90
20658;DHT22;10488;50.846;4.078;2023-07-30T14:45:30;23.50;99.90
20658;DHT22;10488;50.846;4.078;2023-07-30T14:47:55;23.50;99.90
20658;DHT22;10488;50.846;4.078;2023-07-30T14:50:21;23.50;99.90
20658;DHT22;10488;50.846;4.078;2023-07-30T14:52:46;23.20;99.90
20658;DHT22;10488;50.846;4.078;2023-07-30T14:55:12;23.30;99.90
20658;DHT22;10488;50.846;4.078;2023-07-30T14:57:38;23.10;99.90
20658;DHT22;10488;50.846;4.078;2023-07-30T15:00:04;22.90;99.90
20658;DHT22;10488;50.846;4.078;2023-07-30T15:02:30;22.80;99.90
20658;DHT22;10488;50.846;4.078;2023-07-30T15:04:56;22.40;99.90
20658;DHT22;10488;50.846;4.078;2023-07-30T15:07:22;22.40;99.90
20658;DHT22;10488;50.846;4.078;2023-07-30T15:09:53;22.40;99.90
20658;DHT22;10488;50.846;4.078;2023-07-30T15:12:20;22.40;99.90
20658;DHT22;10488;50.846;4.078;2023-07-30T15:14:46;22.30;99.90
20658;DHT22;10488;50.846;4.078;2023-07-30T15:17:11;22.10;99.90
20658;DHT22;10488;50.846;4.078;2023-07-30T15:19:38;21.80;99.90
20658;DHT22;10488;50.846;4.078;2023-07-30T15:22:04;21.50;99.90
20658;DHT22;10488;50.846;4.078;2023-07-30T15:24:30;21.30;99.90
20658;DHT22;10488;50.846;4.078;2023-07-30T15:26:56;21.20;99.90
20658;DHT22;10488;50.846;4.078;2023-07-30T15:29:21;21.40;99.90
20658;DHT22;10488;50.846;4.078;2023-07-30T15:31:49;21.20;99.90